sensor_id;sensor_type;location;lat;lon;timestamp;pressure;altitude;pressure_sealevel;temperature;humidity
76132;BME280;64877;50.994;13.650;2024-01-25T00:02:01;100022.13;;;9.10;74.03
76132;BME280;64877;50.994;13.650;2024-01-25T00:04:28;100031.16;;;9.09;74.62
76132;BME280;64877;50.994;13.650;2024-01-25T00:06:53;100018.56;;;9.09;74.53
76132;BME280;64877;50.994;13.650;2024-01-25T00:09:19;100009.84;;;9.05;74.09
76132;BME280;64877;50.994;13.650;2024-01-25T00:11:44;100009.34;;;8.99;74.47
76132;BME280;64877;50.994;13.650;2024-01-25T00:14:09;100013.75;;;9.00;74.98
76132;BME280;64877;50.994;13.650;2024-01-25T00:16:35;100004.44;;;9.05;74.72
76132;BME280;64877;50.994;13.650;2024-01-25T00:19:00;100007.41;;;9.15;73.93
76132;BME280;64877;50.994;13.650;2024-01-25T00:21:26;100008.84;;;9.06;73.24
76132;BME280;64877;50.994;13.650;2024-01-25T00:23:51;100004.22;;;9.09;73.32
76132;BME280;64877;50.994;13.650;2024-01-25T00:26:16;100020.31;;;9.10;73.48
76132;BME280;64877;50.994;13.650;2024-01-25T00:28:42;100013.66;;;9.16;73.71
76132;BME280;64877;50.994;13.650;2024-01-25T00:31:07;100027.50;;;9.10;73.31
76132;BME280;64877;50.994;13.650;2024-01-25T00:33:32;100013.66;;;9.16;72.49
76132;BME280;64877;50.994;13.650;2024-01-25T00:35:58;100020.38;;;9.09;72.60
76132;BME280;64877;50.994;13.650;2024-01-25T00:38:24;100033.94;;;9.21;72.01
76132;BME280;64877;50.994;13.650;2024-01-25T00:40:50;100035.84;;;9.19;71.72
76132;BME280;64877;50.994;13.650;2024-01-25T00:43:15;100038.50;;;9.06;72.12
76132;BME280;64877;50.994;13.650;2024-01-25T00:45:41;100035.59;;;9.10;72.41
76132;BME280;64877;50.994;13.650;2024-01-25T00:48:07;100026.25;;;9.15;71.86
76132;BME280;64877;50.994;13.650;2024-01-25T00:50:33;100036.25;;;9.13;71.75
76132;BME280;64877;50.994;13.650;2024-01-25T00:52:58;100038.09;;;9.13;71.78
76132;BME280;64877;50.994;13.650;2024-01-25T00:55:24;100043.28;;;9.16;71.32
76132;BME280;64877;50.994;13.650;2024-01-25T00:57:50;100042.91;;;9.07;72.18
76132;BME280;64877;50.994;13.650;2024-01-25T01:00:17;100052.72;;;9.09;71.80
76132;BME280;64877;50.994;13.650;2024-01-25T01:02:43;100037.97;;;9.14;71.80
76132;BME280;64877;50.994;13.650;2024-01-25T01:05:10;100058.25;;;9.20;71.18
76132;BME280;64877;50.994;13.650;2024-01-25T01:07:36;100052.41;;;9.13;71.36
76132;BME280;64877;50.994;13.650;2024-01-25T01:10:01;100053.09;;;9.17;70.97
76132;BME280;64877;50.994;13.650;2024-01-25T01:12:27;100049.03;;;9.24;71.16
76132;BME280;64877;50.994;13.650;2024-01-25T01:14:52;100051.53;;;9.27;70.17
76132;BME280;64877;50.994;13.650;2024-01-25T01:17:17;100063.56;;;9.21;70.46
76132;BME280;64877;50.994;13.650;2024-01-25T01:19:46;100061.63;;;9.23;70.21
76132;BME280;64877;50.994;13.650;2024-01-25T01:22:11;100067.53;;;9.16;70.89
76132;BME280;64877;50.994;13.650;2024-01-25T01:24:37;100060.34;;;9.29;71.49
76132;BME280;64877;50.994;13.650;2024-01-25T01:27:02;100071.25;;;9.27;71.31
76132;BME280;64877;50.994;13.650;2024-01-25T01:29:28;100069.78;;;9.36;71.90
76132;BME280;64877;50.994;13.650;2024-01-25T01:31:53;100070.53;;;9.38;70.42
76132;BME280;64877;50.994;13.650;2024-01-25T01:34:19;100073.28;;;9.24;70.73
76132;BME280;64877;50.994;13.650;2024-01-25T01:36:44;100075.59;;;9.30;70.28
76132;BME280;64877;50.994;13.650;2024-01-25T01:39:10;100080.19;;;9.28;70.50
76132;BME280;64877;50.994;13.650;2024-01-25T01:41:35;100087.22;;;9.30;70.86
76132;BME280;64877;50.994;13.650;2024-01-25T01:44:01;100081.16;;;9.27;70.55
76132;BME280;64877;50.994;13.650;2024-01-25T01:46:34;100086.56;;;9.27;70.71
76132;BME280;64877;50.994;13.650;2024-01-25T01:49:04;100074.25;;;9.23;71.09
76132;BME280;64877;50.994;13.650;2024-01-25T01:51:31;100073.28;;;9.24;71.20
76132;BME280;64877;50.994;13.650;2024-01-25T01:53:56;100081.84;;;9.30;70.64
76132;BME280;64877;50.994;13.650;2024-01-25T01:56:26;100088.50;;;9.25;70.99
76132;BME280;64877;50.994;13.650;2024-01-25T01:58:53;100087.59;;;9.24;70.57
76132;BME280;64877;50.994;13.650;2024-01-25T02:01:20;100071.66;;;9.21;70.73
76132;BME280;64877;50.994;13.650;2024-01-25T02:03:46;100079.22;;;9.29;70.15
76132;BME280;64877;50.994;13.650;2024-01-25T02:06:12;100078.09;;;9.19;70.76
76132;BME280;64877;50.994;13.650;2024-01-25T02:08:37;100079.63;;;9.23;70.86
76132;BME280;64877;50.994;13.650;2024-01-25T02:11:03;100088.00;;;9.18;70.70
76132;BME280;64877;50.994;13.650;2024-01-25T02:13:28;100090.38;;;9.10;71.03
76132;BME280;64877;50.994;13.650;2024-01-25T02:15:53;100072.38;;;9.11;71.77
76132;BME280;64877;50.994;13.650;2024-01-25T02:18:19;100067.72;;;9.13;71.60
76132;BME280;64877;50.994;13.650;2024-01-25T02:20:44;100065.59;;;9.18;71.05
76132;BME280;64877;50.994;13.650;2024-01-25T02:23:10;100063.00;;;9.16;70.87
76132;BME280;64877;50.994;13.650;2024-01-25T02:25:35;100063.66;;;9.20;70.11
76132;BME280;64877;50.994;13.650;2024-01-25T02:28:00;100066.47;;;9.18;70.29
76132;BME280;64877;50.994;13.650;2024-01-25T02:30:26;100065.72;;;9.16;70.74
76132;BME280;64877;50.994;13.650;2024-01-25T02:32:51;100073.13;;;9.13;70.92
76132;BME280;64877;50.994;13.650;2024-01-25T02:35:17;100079.25;;;9.15;70.66
76132;BME280;64877;50.994;13.650;2024-01-25T02:37:43;100077.13;;;9.20;70.89
76132;BME280;64877;50.994;13.650;2024-01-25T02:40:09;100082.34;;;9.09;70.68
76132;BME280;64877;50.994;13.650;2024-01-25T02:42:34;100084.00;;;9.11;70.91
76132;BME280;64877;50.994;13.650;2024-01-25T02:45:00;100076.88;;;9.10;70.64
76132;BME280;64877;50.994;13.650;2024-01-25T02:47:25;100099.31;;;9.11;70.79
76132;BME280;64877;50.994;13.650;2024-01-25T02:49:50;100081.19;;;9.13;70.84
76132;BME280;64877;50.994;13.650;2024-01-25T02:52:16;100095.75;;;9.10;70.61
76132;BME280;64877;50.994;13.650;2024-01-25T02:54:41;100089.75;;;9.19;70.70
76132;BME280;64877;50.994;13.650;2024-01-25T02:57:07;100103.72;;;9.12;70.43
76132;BME280;64877;50.994;13.650;2024-01-25T02:59:32;100106.31;;;9.13;70.41
76132;BME280;64877;50.994;13.650;2024-01-25T03:01:58;100106.19;;;9.15;70.13
76132;BME280;64877;50.994;13.650;2024-01-25T03:04:23;100102.38;;;9.04;70.29
76132;BME280;64877;50.994;13.650;2024-01-25T03:06:48;100112.88;;;8.95;70.79
76132;BME280;64877;50.994;13.650;2024-01-25T03:09:14;100112.50;;;9.01;70.88
76132;BME280;64877;50.994;13.650;2024-01-25T03:11:40;100126.03;;;8.99;70.32
76132;BME280;64877;50.994;13.650;2024-01-25T03:14:05;100125.41;;;8.96;70.47
76132;BME280;64877;50.994;13.650;2024-01-25T03:16:30;100120.66;;;8.99;70.62
76132;BME280;64877;50.994;13.650;2024-01-25T03:18:56;100121.91;;;8.94;70.78
76132;BME280;64877;50.994;13.650;2024-01-25T03:21:21;100134.13;;;8.99;70.62
76132;BME280;64877;50.994;13.650;2024-01-25T03:23:47;100120.28;;;9.05;70.26
76132;BME280;64877;50.994;13.650;2024-01-25T03:26:12;100132.97;;;9.03;69.44
76132;BME280;64877;50.994;13.650;2024-01-25T03:28:37;100138.00;;;8.95;70.18
76132;BME280;64877;50.994;13.650;2024-01-25T03:31:04;100137.50;;;9.03;69.76
76132;BME280;64877;50.994;13.650;2024-01-25T03:33:30;100147.41;;;9.02;69.80
76132;BME280;64877;50.994;13.650;2024-01-25T03:36:01;100147.22;;;9.05;69.85
76132;BME280;64877;50.994;13.650;2024-01-25T03:38:27;100150.84;;;9.04;70.04
76132;BME280;64877;50.994;13.650;2024-01-25T03:40:53;100140.00;;;9.06;69.45
76132;BME280;64877;50.994;13.650;2024-01-25T03:43:19;100147.41;;;9.02;69.42
76132;BME280;64877;50.994;13.650;2024-01-25T03:45:44;100141.28;;;9.00;69.47
76132;BME280;64877;50.994;13.650;2024-01-25T03:48:10;100146.84;;;8.97;69.68
76132;BME280;64877;50.994;13.650;2024-01-25T03:50:35;100143.56;;;9.06;69.33
76132;BME280;64877;50.994;13.650;2024-01-25T03:53:01;100125.38;;;9.10;69.07
76132;BME280;64877;50.994;13.650;2024-01-25T03:55:26;100134.13;;;8.99;69.49
76132;BME280;64877;50.994;13.650;2024-01-25T03:57:51;100135.09;;;8.98;69.86
76132;BME280;64877;50.994;13.650;2024-01-25T04:00:17;100134.69;;;9.04;69.54
76132;BME280;64877;50.994;13.650;2024-01-25T04:02:43;100140.97;;;8.91;69.70
76132;BME280;64877;50.994;13.650;2024-01-25T04:05:08;100139.63;;;8.98;69.68
76132;BME280;64877;50.994;13.650;2024-01-25T04:07:33;100127.97;;;8.97;69.47
76132;BME280;64877;50.994;13.650;2024-01-25T04:09:59;100121.91;;;8.94;69.79
76132;BME280;64877;50.994;13.650;2024-01-25T04:12:24;100111.41;;;9.03;69.54
76132;BME280;64877;50.994;13.650;2024-01-25T04:14:50;100115.78;;;8.92;69.67
76132;BME280;64877;50.994;13.650;2024-01-25T04:17:15;100117.78;;;8.88;70.27
76132;BME280;64877;50.994;13.650;2024-01-25T04:19:41;100118.75;;;8.87;70.63
76132;BME280;64877;50.994;13.650;2024-01-25T04:22:06;100128.38;;;8.91;71.04
76132;BME280;64877;50.994;13.650;2024-01-25T04:24:32;100124.91;;;8.89;70.58
76132;BME280;64877;50.994;13.650;2024-01-25T04:26:57;100123.28;;;8.87;70.90
76132;BME280;64877;50.994;13.650;2024-01-25T04:29:22;100130.50;;;8.86;71.04
76132;BME280;64877;50.994;13.650;2024-01-25T04:31:48;100139.72;;;8.82;71.66
76132;BME280;64877;50.994;13.650;2024-01-25T04:34:15;100130.50;;;8.86;71.36
76132;BME280;64877;50.994;13.650;2024-01-25T04:36:41;100126.66;;;8.76;71.28
76132;BME280;64877;50.994;13.650;2024-01-25T04:39:06;100132.72;;;8.65;72.63
76132;BME280;64877;50.994;13.650;2024-01-25T04:41:32;100136.63;;;8.74;72.39
76132;BME280;64877;50.994;13.650;2024-01-25T04:43:57;100148.19;;;8.76;71.13
76132;BME280;64877;50.994;13.650;2024-01-25T04:46:23;100159.34;;;8.84;71.05
76132;BME280;64877;50.994;13.650;2024-01-25T04:48:48;100156.94;;;8.79;71.23
76132;BME280;64877;50.994;13.650;2024-01-25T04:51:17;100165.28;;;8.75;71.08
76132;BME280;64877;50.994;13.650;2024-01-25T04:53:43;100150.31;;;8.85;70.33
76132;BME280;64877;50.994;13.650;2024-01-25T04:56:09;100170.50;;;8.78;70.93
76132;BME280;64877;50.994;13.650;2024-01-25T04:58:34;100162.69;;;8.73;71.20
76132;BME280;64877;50.994;13.650;2024-01-25T05:01:00;100174.84;;;8.80;70.47
76132;BME280;64877;50.994;13.650;2024-01-25T05:03:25;100177.03;;;8.74;70.99
76132;BME280;64877;50.994;13.650;2024-01-25T05:05:51;100176.94;;;8.75;70.63
76132;BME280;64877;50.994;13.650;2024-01-25T05:08:16;100182.03;;;8.80;70.83
76132;BME280;64877;50.994;13.650;2024-01-25T05:10:43;100181.25;;;8.78;70.90
76132;BME280;64877;50.994;13.650;2024-01-25T05:13:09;100186.66;;;8.78;70.00
76132;BME280;64877;50.994;13.650;2024-01-25T05:15:35;100184.25;;;8.73;70.88
76132;BME280;64877;50.994;13.650;2024-01-25T05:18:01;100175.19;;;8.74;71.18
76132;BME280;64877;50.994;13.650;2024-01-25T05:20:27;100179.66;;;8.75;70.36
76132;BME280;64877;50.994;13.650;2024-01-25T05:23:01;100182.78;;;8.68;70.32
76132;BME280;64877;50.994;13.650;2024-01-25T05:25:26;100169.03;;;8.58;70.45
76132;BME280;64877;50.994;13.650;2024-01-25T05:27:53;100167.78;;;8.64;70.15
76132;BME280;64877;50.994;13.650;2024-01-25T05:30:18;100188.94;;;8.70;69.88
76132;BME280;64877;50.994;13.650;2024-01-25T05:32:44;100178.06;;;8.57;70.03
76132;BME280;64877;50.994;13.650;2024-01-25T05:35:11;100191.44;;;8.59;69.52
76132;BME280;64877;50.994;13.650;2024-01-25T05:37:36;100194.53;;;8.67;69.08
76132;BME280;64877;50.994;13.650;2024-01-25T05:40:02;100200.66;;;8.54;69.58
76132;BME280;64877;50.994;13.650;2024-01-25T05:42:27;100204.63;;;8.63;69.18
76132;BME280;64877;50.994;13.650;2024-01-25T05:44:53;100214.13;;;8.69;69.31
76132;BME280;64877;50.994;13.650;2024-01-25T05:47:18;100208.97;;;8.66;69.16
76132;BME280;64877;50.994;13.650;2024-01-25T05:49:44;100208.16;;;8.64;71.66
76132;BME280;64877;50.994;13.650;2024-01-25T05:52:10;100210.72;;;8.95;79.74
76132;BME280;64877;50.994;13.650;2024-01-25T05:54:35;100218.44;;;9.16;76.13
76132;BME280;64877;50.994;13.650;2024-01-25T05:57:00;100206.28;;;9.37;71.13
76132;BME280;64877;50.994;13.650;2024-01-25T05:59:26;100220.34;;;9.42;68.85
76132;BME280;64877;50.994;13.650;2024-01-25T06:01:51;100227.53;;;9.56;68.55
76132;BME280;64877;50.994;13.650;2024-01-25T06:04:16;100236.88;;;9.65;68.89
76132;BME280;64877;50.994;13.650;2024-01-25T06:06:42;100244.16;;;9.77;67.27
76132;BME280;64877;50.994;13.650;2024-01-25T06:09:07;100248.03;;;9.58;65.05
76132;BME280;64877;50.994;13.650;2024-01-25T06:11:34;100244.69;;;9.41;64.78
76132;BME280;64877;50.994;13.650;2024-01-25T06:14:00;100236.13;;;9.20;65.62
76132;BME280;64877;50.994;13.650;2024-01-25T06:16:26;100249.41;;;9.23;65.21
76132;BME280;64877;50.994;13.650;2024-01-25T06:18:51;100257.88;;;9.02;65.77
76132;BME280;64877;50.994;13.650;2024-01-25T06:21:16;100252.38;;;9.04;66.55
76132;BME280;64877;50.994;13.650;2024-01-25T06:23:42;100256.53;;;8.95;66.57
76132;BME280;64877;50.994;13.650;2024-01-25T06:26:07;100268.63;;;9.02;67.01
76132;BME280;64877;50.994;13.650;2024-01-25T06:28:33;100275.16;;;8.98;68.23
76132;BME280;64877;50.994;13.650;2024-01-25T06:31:01;100284.59;;;8.91;68.91
76132;BME280;64877;50.994;13.650;2024-01-25T06:33:26;100272.88;;;8.92;68.18
76132;BME280;64877;50.994;13.650;2024-01-25T06:35:54;100267.94;;;8.85;68.21
76132;BME280;64877;50.994;13.650;2024-01-25T06:38:19;100274.56;;;8.79;68.57
76132;BME280;64877;50.994;13.650;2024-01-25T06:40:45;100281.31;;;8.86;68.70
76132;BME280;64877;50.994;13.650;2024-01-25T06:43:10;100279.94;;;8.79;68.95
76132;BME280;64877;50.994;13.650;2024-01-25T06:45:37;100284.84;;;8.72;68.40
76132;BME280;64877;50.994;13.650;2024-01-25T06:48:06;100286.94;;;8.67;69.24
76132;BME280;64877;50.994;13.650;2024-01-25T06:50:31;100286.78;;;8.70;69.07
76132;BME280;64877;50.994;13.650;2024-01-25T06:52:57;100297.72;;;8.67;69.10
76132;BME280;64877;50.994;13.650;2024-01-25T06:55:22;100290.44;;;8.53;70.22
76132;BME280;64877;50.994;13.650;2024-01-25T06:57:48;100286.84;;;8.69;70.13
76132;BME280;64877;50.994;13.650;2024-01-25T07:00:14;100282.69;;;8.63;69.35
76132;BME280;64877;50.994;13.650;2024-01-25T07:02:41;100288.63;;;8.54;70.06
76132;BME280;64877;50.994;13.650;2024-01-25T07:05:07;100291.41;;;8.52;69.88
76132;BME280;64877;50.994;13.650;2024-01-25T07:07:33;100299.66;;;8.49;69.67
76132;BME280;64877;50.994;13.650;2024-01-25T07:09:58;100301.31;;;8.52;69.50
76132;BME280;64877;50.994;13.650;2024-01-25T07:12:24;100303.47;;;8.61;69.54
76132;BME280;64877;50.994;13.650;2024-01-25T07:14:49;100304.31;;;8.62;69.11
76132;BME280;64877;50.994;13.650;2024-01-25T07:17:15;100299.97;;;8.59;69.74
76132;BME280;64877;50.994;13.650;2024-01-25T07:19:40;100309.50;;;8.65;69.78
76132;BME280;64877;50.994;13.650;2024-01-25T07:22:05;100307.03;;;8.62;69.13
76132;BME280;64877;50.994;13.650;2024-01-25T07:24:31;100322.94;;;8.50;70.26
76132;BME280;64877;50.994;13.650;2024-01-25T07:26:56;100313.97;;;8.66;69.43
76132;BME280;64877;50.994;13.650;2024-01-25T07:29:22;100316.38;;;8.70;68.42
76132;BME280;64877;50.994;13.650;2024-01-25T07:31:48;100327.22;;;8.69;68.76
76132;BME280;64877;50.994;13.650;2024-01-25T07:34:13;100321.19;;;8.65;68.40
76132;BME280;64877;50.994;13.650;2024-01-25T07:36:39;100324.97;;;8.77;68.41
76132;BME280;64877;50.994;13.650;2024-01-25T07:39:04;100317.53;;;8.66;68.34
76132;BME280;64877;50.994;13.650;2024-01-25T07:41:30;100322.13;;;8.64;68.71
76132;BME280;64877;50.994;13.650;2024-01-25T07:43:56;100337.59;;;8.61;68.67
76132;BME280;64877;50.994;13.650;2024-01-25T07:46:21;100339.09;;;8.50;69.49
76132;BME280;64877;50.994;13.650;2024-01-25T07:48:49;100324.22;;;8.59;69.53
76132;BME280;64877;50.994;13.650;2024-01-25T07:51:14;100331.75;;;8.68;69.71
76132;BME280;64877;50.994;13.650;2024-01-25T07:53:40;100328.28;;;8.66;69.13
76132;BME280;64877;50.994;13.650;2024-01-25T07:56:08;100327.16;;;8.70;69.27
76132;BME280;64877;50.994;13.650;2024-01-25T07:58:37;100333.69;;;8.66;69.84
76132;BME280;64877;50.994;13.650;2024-01-25T08:01:04;100321.47;;;8.75;68.91
76132;BME280;64877;50.994;13.650;2024-01-25T08:03:30;100335.56;;;8.64;69.12
76132;BME280;64877;50.994;13.650;2024-01-25T08:05:55;100338.88;;;8.69;69.71
76132;BME280;64877;50.994;13.650;2024-01-25T08:08:21;100340.41;;;8.73;69.14
76132;BME280;64877;50.994;13.650;2024-01-25T08:10:46;100338.00;;;8.69;69.30
76132;BME280;64877;50.994;13.650;2024-01-25T08:13:12;100346.31;;;8.80;68.96
76132;BME280;64877;50.994;13.650;2024-01-25T08:15:38;100338.31;;;8.78;69.06
76132;BME280;64877;50.994;13.650;2024-01-25T08:18:04;100340.16;;;8.78;68.83
76132;BME280;64877;50.994;13.650;2024-01-25T08:20:29;100339.97;;;8.81;68.88
76132;BME280;64877;50.994;13.650;2024-01-25T08:22:54;100335.03;;;8.73;69.22
76132;BME280;64877;50.994;13.650;2024-01-25T08:25:20;100346.31;;;8.80;69.74
76132;BME280;64877;50.994;13.650;2024-01-25T08:27:45;100360.72;;;8.79;69.19
76132;BME280;64877;50.994;13.650;2024-01-25T08:30:11;100361.31;;;8.84;69.46
76132;BME280;64877;50.994;13.650;2024-01-25T08:32:37;100368.28;;;8.88;69.56
76132;BME280;64877;50.994;13.650;2024-01-25T08:35:03;100364.28;;;8.79;69.89
76132;BME280;64877;50.994;13.650;2024-01-25T08:37:28;100351.53;;;8.83;70.20
76132;BME280;64877;50.994;13.650;2024-01-25T08:39:54;100362.19;;;8.85;69.99
76132;BME280;64877;50.994;13.650;2024-01-25T08:42:19;100362.13;;;8.86;69.64
76132;BME280;64877;50.994;13.650;2024-01-25T08:44:46;100365.59;;;8.88;69.64
76132;BME280;64877;50.994;13.650;2024-01-25T08:47:18;100371.34;;;8.82;70.16
76132;BME280;64877;50.994;13.650;2024-01-25T08:49:43;100372.69;;;8.89;69.60
76132;BME280;64877;50.994;13.650;2024-01-25T08:52:09;100369.94;;;8.91;69.73
76132;BME280;64877;50.994;13.650;2024-01-25T08:54:35;100368.00;;;8.93;69.71
76132;BME280;64877;50.994;13.650;2024-01-25T08:57:03;100378.41;;;8.99;69.30
76132;BME280;64877;50.994;13.650;2024-01-25T08:59:29;100368.16;;;9.05;69.36
76132;BME280;64877;50.994;13.650;2024-01-25T09:01:56;100365.09;;;9.12;68.89
76132;BME280;64877;50.994;13.650;2024-01-25T09:04:21;100390.09;;;9.14;68.25
76132;BME280;64877;50.994;13.650;2024-01-25T09:06:47;100366.63;;;9.16;68.34
76132;BME280;64877;50.994;13.650;2024-01-25T09:09:12;100392.72;;;9.29;66.79
76132;BME280;64877;50.994;13.650;2024-01-25T09:11:38;100389.97;;;9.31;66.67
76132;BME280;64877;50.994;13.650;2024-01-25T09:14:03;100394.53;;;9.15;67.68
76132;BME280;64877;50.994;13.650;2024-01-25T09:16:29;100385.59;;;9.28;67.04
76132;BME280;64877;50.994;13.650;2024-01-25T09:18:54;100382.47;;;9.36;67.30
76132;BME280;64877;50.994;13.650;2024-01-25T09:21:20;100384.88;;;9.41;67.00
76132;BME280;64877;50.994;13.650;2024-01-25T09:23:45;100384.63;;;9.29;67.06
76132;BME280;64877;50.994;13.650;2024-01-25T09:26:11;100382.84;;;9.44;66.62
76132;BME280;64877;50.994;13.650;2024-01-25T09:28:36;100398.09;;;9.45;66.62
76132;BME280;64877;50.994;13.650;2024-01-25T09:31:02;100403.47;;;9.45;65.68
76132;BME280;64877;50.994;13.650;2024-01-25T09:33:28;100390.28;;;9.69;65.53
76132;BME280;64877;50.994;13.650;2024-01-25T09:35:55;100399.47;;;9.81;65.35
76132;BME280;64877;50.994;13.650;2024-01-25T09:38:21;100377.47;;;10.16;64.38
76132;BME280;64877;50.994;13.650;2024-01-25T09:40:47;100398.28;;;10.14;63.62
76132;BME280;64877;50.994;13.650;2024-01-25T09:43:14;100404.34;;;10.03;63.69
76132;BME280;64877;50.994;13.650;2024-01-25T09:45:41;100408.78;;;10.18;62.10
76132;BME280;64877;50.994;13.650;2024-01-25T09:48:07;100409.63;;;10.19;62.63
76132;BME280;64877;50.994;13.650;2024-01-25T09:50:33;100403.22;;;10.07;62.62
76132;BME280;64877;50.994;13.650;2024-01-25T09:52:59;100421.81;;;10.12;63.38
76132;BME280;64877;50.994;13.650;2024-01-25T09:55:26;100415.84;;;10.06;63.10
76132;BME280;64877;50.994;13.650;2024-01-25T09:57:55;100422.28;;;10.04;62.96
76132;BME280;64877;50.994;13.650;2024-01-25T10:00:23;100424.63;;;10.10;63.59
76132;BME280;64877;50.994;13.650;2024-01-25T10:02:49;100442.13;;;10.17;62.94
76132;BME280;64877;50.994;13.650;2024-01-25T10:05:16;100432.63;;;10.26;61.75
76132;BME280;64877;50.994;13.650;2024-01-25T10:07:43;100445.34;;;10.09;62.13
76132;BME280;64877;50.994;13.650;2024-01-25T10:10:09;100441.84;;;10.07;62.12
76132;BME280;64877;50.994;13.650;2024-01-25T10:12:37;100447.81;;;10.13;61.87
76132;BME280;64877;50.994;13.650;2024-01-25T10:15:04;100449.84;;;10.23;62.94
76132;BME280;64877;50.994;13.650;2024-01-25T10:17:30;100450.38;;;10.98;59.98
76132;BME280;64877;50.994;13.650;2024-01-25T10:19:55;100447.56;;;11.14;58.23
76132;BME280;64877;50.994;13.650;2024-01-25T10:22:21;100449.53;;;11.25;57.91
76132;BME280;64877;50.994;13.650;2024-01-25T10:24:47;100457.88;;;11.87;55.50
76132;BME280;64877;50.994;13.650;2024-01-25T10:27:15;100451.06;;;12.07;53.35
76132;BME280;64877;50.994;13.650;2024-01-25T10:29:41;100459.19;;;11.94;53.23
76132;BME280;64877;50.994;13.650;2024-01-25T10:32:08;100450.84;;;11.84;53.96
76132;BME280;64877;50.994;13.650;2024-01-25T10:34:36;100447.38;;;11.82;54.24
76132;BME280;64877;50.994;13.650;2024-01-25T10:37:06;100453.25;;;11.49;55.60
76132;BME280;64877;50.994;13.650;2024-01-25T10:39:32;100458.00;;;11.58;56.59
76132;BME280;64877;50.994;13.650;2024-01-25T10:41:59;100464.09;;;11.49;54.81
76132;BME280;64877;50.994;13.650;2024-01-25T10:44:25;100455.38;;;11.31;55.99
76132;BME280;64877;50.994;13.650;2024-01-25T10:46:50;100460.97;;;11.16;56.27
76132;BME280;64877;50.994;13.650;2024-01-25T10:49:17;100449.59;;;11.23;55.80
76132;BME280;64877;50.994;13.650;2024-01-25T10:51:44;100455.22;;;10.93;56.80
76132;BME280;64877;50.994;13.650;2024-01-25T10:54:11;100455.34;;;10.65;58.37
76132;BME280;64877;50.994;13.650;2024-01-25T10:56:45;100449.00;;;10.37;59.52
76132;BME280;64877;50.994;13.650;2024-01-25T10:59:13;100452.66;;;10.22;60.16
76132;BME280;64877;50.994;13.650;2024-01-25T11:01:44;100455.16;;;10.39;60.40
76132;BME280;64877;50.994;13.650;2024-01-25T11:04:15;100456.53;;;10.46;60.14
76132;BME280;64877;50.994;13.650;2024-01-25T11:06:45;100451.41;;;10.42;60.23
76132;BME280;64877;50.994;13.650;2024-01-25T11:09:17;100459.63;;;10.26;60.82
76132;BME280;64877;50.994;13.650;2024-01-25T11:11:44;100460.06;;;10.18;61.54
76132;BME280;64877;50.994;13.650;2024-01-25T11:14:14;100456.94;;;10.26;61.60
76132;BME280;64877;50.994;13.650;2024-01-25T11:16:39;100455.97;;;10.27;61.60
76132;BME280;64877;50.994;13.650;2024-01-25T11:19:16;100462.91;;;10.31;60.96
76132;BME280;64877;50.994;13.650;2024-01-25T11:21:45;100455.78;;;10.30;61.57
76132;BME280;64877;50.994;13.650;2024-01-25T11:24:15;100460.78;;;10.36;60.61
76132;BME280;64877;50.994;13.650;2024-01-25T11:26:44;100448.81;;;10.26;61.24
76132;BME280;64877;50.994;13.650;2024-01-25T11:29:16;100455.97;;;10.27;61.57
76132;BME280;64877;50.994;13.650;2024-01-25T11:31:43;100447.28;;;10.36;61.67
76132;BME280;64877;50.994;13.650;2024-01-25T11:34:10;100452.97;;;10.31;61.85
76132;BME280;64877;50.994;13.650;2024-01-25T11:36:35;100457.69;;;10.28;62.57
76132;BME280;64877;50.994;13.650;2024-01-25T11:39:01;100452.75;;;10.20;62.19
76132;BME280;64877;50.994;13.650;2024-01-25T11:41:26;100450.25;;;10.17;62.71
76132;BME280;64877;50.994;13.650;2024-01-25T11:43:53;100458.50;;;10.14;63.08
76132;BME280;64877;50.994;13.650;2024-01-25T11:46:18;100446.50;;;10.05;63.36
76132;BME280;64877;50.994;13.650;2024-01-25T11:48:44;100457.97;;;9.95;64.12
76132;BME280;64877;50.994;13.650;2024-01-25T11:51:10;100460.56;;;9.96;64.16
76132;BME280;64877;50.994;13.650;2024-01-25T11:53:38;100451.31;;;10.00;64.36
76132;BME280;64877;50.994;13.650;2024-01-25T11:56:09;100453.41;;;9.81;64.55
76132;BME280;64877;50.994;13.650;2024-01-25T11:58:37;100444.75;;;9.90;64.71
76132;BME280;64877;50.994;13.650;2024-01-25T12:01:03;100443.41;;;9.97;65.07
76132;BME280;64877;50.994;13.650;2024-01-25T12:03:33;100442.94;;;10.05;64.31
76132;BME280;64877;50.994;13.650;2024-01-25T12:05:59;100441.66;;;10.10;63.50
76132;BME280;64877;50.994;13.650;2024-01-25T12:08:25;100442.44;;;10.13;64.05
76132;BME280;64877;50.994;13.650;2024-01-25T12:11:02;100445.34;;;10.24;63.98
76132;BME280;64877;50.994;13.650;2024-01-25T12:13:31;100436.94;;;10.28;63.38
76132;BME280;64877;50.994;13.650;2024-01-25T12:15:57;100437.06;;;10.27;63.07
76132;BME280;64877;50.994;13.650;2024-01-25T12:18:22;100437.25;;;10.24;63.49
76132;BME280;64877;50.994;13.650;2024-01-25T12:20:48;100448.25;;;10.35;62.70
76132;BME280;64877;50.994;13.650;2024-01-25T12:23:14;100439.63;;;10.43;63.21
76132;BME280;64877;50.994;13.650;2024-01-25T12:25:40;100448.59;;;10.43;62.57
76132;BME280;64877;50.994;13.650;2024-01-25T12:28:06;100439.56;;;10.44;62.44
76132;BME280;64877;50.994;13.650;2024-01-25T12:30:31;100438.59;;;10.45;62.03
76132;BME280;64877;50.994;13.650;2024-01-25T12:32:56;100437.44;;;10.35;62.66
76132;BME280;64877;50.994;13.650;2024-01-25T12:35:22;100440.16;;;10.35;63.03
76132;BME280;64877;50.994;13.650;2024-01-25T12:37:47;100437.44;;;10.35;62.59
76132;BME280;64877;50.994;13.650;2024-01-25T12:40:13;100435.50;;;10.37;62.71
76132;BME280;64877;50.994;13.650;2024-01-25T12:42:39;100424.44;;;10.27;63.89